Time;durP1;ratioP1;P1;durP2;ratioP2;P2;SDS_P1;SDS_P2;PMS_P1;PMS_P2;Temp;Humidity;BMP_temperature;BMP_pressure;BME280_temperature;BME280_humidity;BME280_pressure;Samples;Min_cycle;Max_cycle;Signal;HPM_P1;HPM_P2
2022/03/22 00:00:29;;;;;;;14.68;6.90;;;;;;;8.83;58.53;103143.91;5077181;27;100934;-36
2022/03/22 00:02:55;;;;;;;11.40;6.38;;;;;;;8.86;57.98;103149.25;5077337;27;102646;-36
2022/03/22 00:05:20;;;;;;;14.43;6.28;;;;;;;8.79;58.87;103141.28;5095888;27;96819;-36
2022/03/22 00:07:45;;;;;;;13.20;6.50;;;;;;;8.78;58.36;103136.81;5095827;27;96903;-36
2022/03/22 00:10:11;;;;;;;18.35;7.40;;;;;;;8.77;58.62;103140.44;5095175;27;99153;-36
2022/03/22 00:12:36;;;;;;;21.83;7.60;;;;;;;8.80;58.40;103143.09;5095528;27;108385;-36
2022/03/22 00:15:05;;;;;;;14.52;7.07;;;;;;;8.76;58.71;103136.84;5096083;27;96523;-36
2022/03/22 00:17:30;;;;;;;15.18;6.22;;;;;;;8.73;58.67;103136.91;5060090;27;96823;-36
2022/03/22 00:19:55;;;;;;;15.40;6.18;;;;;;;8.75;58.81;103137.78;5095767;27;97781;-36
2022/03/22 00:22:21;;;;;;;14.98;6.72;;;;;;;8.67;59.16;103128.88;5095693;27;97839;-36
2022/03/22 00:24:46;;;;;;;17.27;7.15;;;;;;;8.69;59.37;103141.44;5095754;27;97302;-36
2022/03/22 00:27:12;;;;;;;16.70;6.97;;;;;;;8.57;60.14;103116.47;5095487;27;113240;-36
2022/03/22 00:29:37;;;;;;;13.20;7.25;;;;;;;8.56;60.47;103126.38;5078130;27;126878;-36
2022/03/22 00:32:03;;;;;;;16.42;7.03;;;;;;;8.60;59.38;103135.31;5098890;27;97319;-36
2022/03/22 00:34:28;;;;;;;14.13;6.03;;;;;;;8.57;59.14;103138.06;5099065;27;96834;-36
2022/03/22 00:36:58;;;;;;;15.90;6.30;;;;;;;8.56;59.41;103141.69;5098367;27;115093;-36
2022/03/22 00:39:24;;;;;;;13.77;6.65;;;;;;;8.54;59.31;103140.84;5080237;27;100966;-36
2022/03/22 00:41:50;;;;;;;14.68;7.22;;;;;;;8.54;59.46;103144.41;5098925;27;97328;-37
2022/03/22 00:44:16;;;;;;;18.10;6.72;;;;;;;8.45;59.96;103131.94;5099060;27;96618;-36
2022/03/22 00:46:41;;;;;;;18.23;7.63;;;;;;;8.47;59.90;103135.50;5099360;27;96688;-36
2022/03/22 00:49:06;;;;;;;16.10;6.78;;;;;;;8.42;59.57;103132.00;5097960;27;126495;-36
2022/03/22 00:51:32;;;;;;;17.58;7.38;;;;;;;8.45;60.11;103136.47;5098264;27;126728;-36
2022/03/22 00:54:02;;;;;;;13.70;6.43;;;;;;;8.37;60.36;103128.44;5099171;27;96647;-37
2022/03/22 00:56:42;;;;;;;14.63;6.80;;;;;;;8.39;61.41;103139.19;5099138;27;97151;-36
2022/03/22 01:01:51;;;;;;;13.70;7.07;;;;;;;8.37;60.38;103136.56;5098993;27;96945;-36
2022/03/22 01:04:16;;;;;;;13.70;6.53;;;;;;;8.32;60.33;103140.22;5097987;27;116643;-36
2022/03/22 01:06:41;;;;;;;15.02;7.50;;;;;;;8.27;60.80;103133.09;5097676;27;116521;-36
2022/03/22 01:09:07;;;;;;;13.13;6.95;;;;;;;8.30;61.88;103137.56;5098480;27;99325;-36
2022/03/22 01:11:32;;;;;;;14.10;7.30;;;;;;;8.20;61.60;103126.00;5097287;27;126918;-37
2022/03/22 01:13:57;;;;;;;14.38;6.32;;;;;;;8.25;61.48;103137.63;5098995;27;96486;-36
2022/03/22 01:16:22;;;;;;;13.40;6.97;;;;;;;8.19;62.26;103140.41;5098568;27;108870;-36
2022/03/22 01:18:48;;;;;;;15.13;6.78;;;;;;;8.16;61.86;103140.47;5097608;27;126922;-37
2022/03/22 01:21:13;;;;;;;15.98;6.70;;;;;;;8.10;61.74;103135.13;5098387;27;101551;-36
2022/03/22 01:23:38;;;;;;;14.95;6.55;;;;;;;8.09;61.39;103145.03;5097537;27;111795;-36
2022/03/22 01:26:06;;;;;;;13.25;6.72;;;;;;;8.00;60.90;103123.56;5098355;27;109045;-36
2022/03/22 01:28:31;;;;;;;12.35;5.95;;;;;;;8.04;61.47;103135.25;5098124;27;99408;-36
2022/03/22 01:30:56;;;;;;;13.80;7.15;;;;;;;7.99;61.25;103131.72;5098277;27;97934;-36
2022/03/22 01:33:21;;;;;;;21.75;6.70;;;;;;;8.04;61.05;103137.94;5098182;27;113366;-36
2022/03/22 01:35:47;;;;;;;16.33;7.05;;;;;;;8.06;61.58;103139.69;5097661;27;115018;-36
2022/03/22 01:38:12;;;;;;;14.10;7.47;;;;;;;7.99;61.94;103126.31;5097437;27;125999;-36
2022/03/22 01:40:37;;;;;;;15.02;6.57;;;;;;;8.02;62.86;103134.38;5097663;27;102024;-36
2022/03/22 01:43:04;;;;;;;11.65;6.82;;;;;;;8.01;61.80;103136.19;5098170;27;96522;-36
2022/03/22 01:45:30;;;;;;;14.88;7.55;;;;;;;8.00;61.54;103136.19;5079714;27;96861;-36
2022/03/22 01:48:01;;;;;;;18.15;7.38;;;;;;;7.97;61.51;103129.03;5097527;27;98089;-36
2022/03/22 01:50:29;;;;;;;10.77;6.03;;;;;;;7.97;62.00;103125.44;5079434;27;101002;-36
2022/03/22 01:52:55;;;;;;;19.40;8.25;;;;;;;7.98;62.05;103136.19;5079886;27;96597;-36
2022/03/22 01:55:23;;;;;;;19.52;7.97;;;;;;;7.91;62.31;103120.13;5079397;27;96798;-36
2022/03/22 01:57:48;;;;;;;11.95;6.68;;;;;;;7.97;62.67;103129.03;5097858;27;98447;-36
2022/03/22 02:00:17;;;;;;;16.00;7.25;;;;;;;7.94;62.24;103122.78;5097868;27;97791;-36
2022/03/22 02:08:16;;;;;;;15.45;6.97;;;;;;;7.89;61.82;103112.06;5081199;27;97937;-36
2022/03/22 02:10:42;;;;;;;17.65;8.00;;;;;;;7.87;62.12;103111.19;5078919;27;100959;-36
2022/03/22 02:13:07;;;;;;;16.33;7.65;;;;;;;7.91;62.17;103117.41;5097249;27;96651;-36
2022/03/22 02:15:32;;;;;;;18.92;6.82;;;;;;;7.82;62.42;103110.38;5096930;27;116658;-36
2022/03/22 02:17:59;;;;;;;19.08;7.13;;;;;;;7.80;63.66;103106.78;5097407;27;99274;-36
2022/03/22 02:20:25;;;;;;;15.20;6.70;;;;;;;7.80;63.52;103113.06;5078856;27;100767;-36
2022/03/22 02:22:53;;;;;;;14.40;6.10;;;;;;;7.77;63.51;103105.03;5079195;27;96716;-36
2022/03/22 02:25:19;;;;;;;13.35;7.35;;;;;;;7.76;62.92;103108.63;5079244;27;96777;-36
2022/03/22 02:27:52;;;;;;;13.05;6.93;;;;;;;7.74;63.74;103106.84;5061811;27;100700;-36
2022/03/22 02:30:17;;;;;;;17.67;7.05;;;;;;;7.71;63.75;103115.88;5097557;27;99482;-36
2022/03/22 02:32:56;;;;;;;21.20;6.50;;;;;;;7.69;63.48;103111.44;5097567;27;96714;-36
2022/03/22 02:35:23;;;;;;;15.50;7.75;;;;;;;7.63;63.44;103107.00;5097920;27;97044;-36
2022/03/22 02:37:50;;;;;;;15.57;7.28;;;;;;;7.67;64.17;103116.81;5078121;27;100988;-36
2022/03/22 02:40:16;;;;;;;17.60;8.43;;;;;;;7.64;63.14;103109.66;5078591;27;101019;-36
2022/03/22 02:42:42;;;;;;;12.50;6.35;;;;;;;7.64;62.84;103115.06;5078724;27;96522;-36
2022/03/22 02:45:09;;;;;;;15.70;8.10;;;;;;;7.61;63.39;103103.44;5078819;27;96916;-36
2022/03/22 02:47:34;;;;;;;17.02;8.05;;;;;;;7.61;62.51;103115.13;5078442;27;100897;-36
2022/03/22 02:50:00;;;;;;;22.98;7.88;;;;;;;7.64;63.46;103119.56;5097117;27;96504;-36
2022/03/22 02:52:25;;;;;;;14.80;7.65;;;;;;;7.58;62.90;103109.78;5096485;27;96547;-36
2022/03/22 02:54:50;;;;;;;19.27;8.23;;;;;;;7.63;63.12;103116.00;5097732;27;96728;-36
2022/03/22 02:57:16;;;;;;;15.13;8.13;;;;;;;7.65;62.98;103121.34;5096051;27;119243;-36
2022/03/22 02:59:41;;;;;;;18.00;8.18;;;;;;;7.66;63.40;103118.63;5096393;27;123650;-36
2022/03/22 03:02:06;;;;;;;18.02;7.25;;;;;;;7.63;62.78;103113.28;5095614;27;116944;-36
2022/03/22 03:04:31;;;;;;;16.70;7.32;;;;;;;7.60;63.53;103107.03;5096517;27;107981;-36
2022/03/22 03:06:57;;;;;;;16.25;6.97;;;;;;;7.61;63.73;103112.41;5095728;27;111074;-36
2022/03/22 03:09:22;;;;;;;20.05;8.85;;;;;;;7.66;63.83;103117.75;5095793;27;126407;-36
2022/03/22 03:11:47;;;;;;;13.98;6.63;;;;;;;7.55;63.89;103098.09;5096075;27;117510;-36
2022/03/22 03:16:56;;;;;;;18.92;7.28;;;;;;;7.52;63.77;103099.03;5097263;27;97012;-36
2022/03/22 03:19:22;;;;;;;18.08;8.48;;;;;;;7.62;63.82;103111.50;5096051;27;123159;-36
2022/03/22 03:21:47;;;;;;;17.83;7.20;;;;;;;7.58;64.05;103106.16;5096882;27;96663;-36
2022/03/22 03:24:13;;;;;;;17.30;8.27;;;;;;;7.61;63.57;103115.13;5096750;27;96866;-36
2022/03/22 03:26:38;;;;;;;12.55;7.65;;;;;;;7.58;63.83;103112.47;5096190;27;97861;-36
2022/03/22 03:29:04;;;;;;;27.80;7.93;;;;;;;7.63;63.91;103123.19;5077373;27;100988;-36
2022/03/22 03:31:29;;;;;;;14.50;6.68;;;;;;;7.63;63.64;103118.69;5096763;27;96485;-36
2022/03/22 03:33:54;;;;;;;23.30;7.82;;;;;;;7.63;64.37;103123.19;5095797;27;116299;-36
2022/03/22 03:36:20;;;;;;;20.85;9.40;;;;;;;7.55;64.64;103101.69;5096089;27;99662;-36
2022/03/22 03:38:45;;;;;;;17.42;7.22;;;;;;;7.62;64.56;103116.00;5077637;27;100458;-36
2022/03/22 03:43:56;;;;;;;15.18;7.03;;;;;;;7.61;65.23;103122.31;5097238;27;96780;-36
2022/03/22 03:49:08;;;;;;;17.05;8.68;;;;;;;7.52;64.21;103108.94;5096515;27;97008;-36
2022/03/22 03:51:35;;;;;;;20.13;8.13;;;;;;;7.53;64.57;103124.19;5095521;27;96607;-36
2022/03/22 03:54:01;;;;;;;13.60;7.18;;;;;;;7.52;64.79;103115.22;5077576;27;96881;-36
2022/03/22 03:56:27;;;;;;;16.25;7.60;;;;;;;7.47;63.95;103117.09;5096076;27;97855;-36
2022/03/22 03:58:52;;;;;;;24.13;8.00;;;;;;;7.47;65.29;103114.38;5095958;27;98712;-36
2022/03/22 04:01:17;;;;;;;15.10;7.95;;;;;;;7.54;64.41;103120.63;5076763;27;118192;-36
2022/03/22 04:03:45;;;;;;;21.02;8.35;;;;;;;7.53;64.78;103126.91;5095975;27;96866;-36
2022/03/22 04:06:11;;;;;;;15.25;7.30;;;;;;;7.46;65.22;103109.94;5095920;27;98024;-36
2022/03/22 04:08:36;;;;;;;20.77;8.10;;;;;;;7.50;65.17;103124.25;5095661;27;104284;-36
2022/03/22 04:11:01;;;;;;;18.25;9.13;;;;;;;7.47;64.78;103125.19;5095108;27;116949;-36
2022/03/22 04:13:27;;;;;;;16.23;7.90;;;;;;;7.45;65.05;103127.00;5095087;27;116504;-36
2022/03/22 04:15:53;;;;;;;16.90;8.57;;;;;;;7.43;65.16;103123.41;5095008;27;99322;-36
2022/03/22 04:18:21;;;;;;;17.42;7.88;;;;;;;7.39;65.02;103130.66;5095295;27;116794;-36
2022/03/22 04:20:47;;;;;;;17.67;7.88;;;;;;;7.33;65.77;103121.75;5095110;27;116558;-36
2022/03/22 04:23:13;;;;;;;15.35;7.20;;;;;;;7.40;66.06;103128.84;5095940;27;96757;-36
2022/03/22 04:25:38;;;;;;;17.17;7.75;;;;;;;7.34;65.03;103123.53;5095631;27;97844;-36
2022/03/22 04:33:33;;;;;;;18.13;8.25;;;;;;;7.31;66.04;103131.66;5096612;27;96557;-36
2022/03/22 04:35:59;;;;;;;19.88;8.35;;;;;;;7.34;65.97;103132.53;5076865;27;99494;-36
2022/03/22 04:38:25;;;;;;;13.00;6.35;;;;;;;7.33;66.04;103128.03;5076702;27;100914;-36
2022/03/22 04:40:50;;;;;;;16.77;7.90;;;;;;;7.27;65.89;103119.09;5095121;27;96516;-36
2022/03/22 04:43:15;;;;;;;19.42;8.18;;;;;;;7.31;66.36;103134.34;5095331;27;99346;-36
2022/03/22 04:45:41;;;;;;;21.45;8.73;;;;;;;7.30;66.17;103135.28;5094437;27;126464;-36
2022/03/22 04:48:07;;;;;;;17.63;7.65;;;;;;;7.26;66.32;103130.81;5076413;27;101109;-36
2022/03/22 04:50:32;;;;;;;15.40;8.38;;;;;;;7.20;66.70;103129.09;5095673;27;96473;-36
2022/03/22 04:58:25;;;;;;;17.35;7.18;;;;;;;7.15;67.53;103130.91;5096116;27;96896;-36
2022/03/22 05:00:50;;;;;;;14.70;8.13;;;;;;;7.12;67.07;103131.84;5094685;27;115325;-36
2022/03/22 05:03:16;;;;;;;20.10;8.45;;;;;;;7.18;66.02;103145.28;5095581;27;96691;-36
2022/03/22 05:08:25;;;;;;;15.98;7.07;;;;;;;7.17;65.56;103151.53;5095119;27;96992;-36
2022/03/22 05:10:50;;;;;;;21.25;6.93;;;;;;;7.11;66.04;103135.47;5094713;27;104656;-36
2022/03/22 05:13:16;;;;;;;20.10;8.02;;;;;;;7.15;66.18;103142.63;5095146;27;96781;-36
2022/03/22 05:15:41;;;;;;;20.08;8.30;;;;;;;7.12;66.82;103139.94;5097132;27;97931;-36
2022/03/22 05:18:06;;;;;;;15.05;7.90;;;;;;;7.15;67.07;103141.69;5098718;27;97749;-36
2022/03/22 05:20:32;;;;;;;25.35;9.50;;;;;;;7.11;65.81;103139.97;5098690;27;96626;-36
2022/03/22 05:22:58;;;;;;;18.15;8.57;;;;;;;7.12;65.05;103139.03;5099360;27;96775;-36
2022/03/22 05:25:24;;;;;;;16.92;9.23;;;;;;;7.18;65.66;103152.47;5079646;27;101043;-36
2022/03/22 05:27:49;;;;;;;13.77;8.02;;;;;;;7.19;65.43;103155.13;5079674;27;100556;-36
2022/03/22 05:30:15;;;;;;;22.15;8.73;;;;;;;7.15;66.06;103147.09;5078973;27;100887;-36
2022/03/22 05:32:41;;;;;;;14.73;7.55;;;;;;;7.18;66.67;103165.94;5098887;27;96670;-36
2022/03/22 05:35:07;;;;;;;14.15;7.13;;;;;;;7.09;66.31;103145.34;5098175;27;99301;-36
2022/03/22 05:37:32;;;;;;;16.95;7.43;;;;;;;7.04;66.24;103149.91;5079412;27;101666;-36
2022/03/22 05:39:58;;;;;;;16.30;7.75;;;;;;;7.10;66.81;103166.00;5098283;27;99116;-36
2022/03/22 05:42:23;;;;;;;21.77;9.73;;;;;;;7.06;67.08;103166.06;5097412;27;108664;-36
2022/03/22 05:44:49;;;;;;;14.68;7.20;;;;;;;7.06;67.97;103172.34;5098306;27;97720;-36
2022/03/22 05:47:14;;;;;;;28.50;8.45;;;;;;;7.00;67.25;103170.56;5098264;27;99061;-36
2022/03/22 05:49:40;;;;;;;19.88;8.75;;;;;;;6.98;68.14;103168.81;5097832;27;105334;-36
2022/03/22 05:52:06;;;;;;;16.83;7.53;;;;;;;6.95;67.72;103166.16;5098199;27;96771;-36
2022/03/22 05:54:32;;;;;;;14.95;8.18;;;;;;;6.87;68.08;103159.94;5097511;27;99649;-36
2022/03/22 05:56:58;;;;;;;18.73;8.25;;;;;;;6.85;67.09;103159.06;5079038;27;101341;-36
2022/03/22 05:59:24;;;;;;;15.27;8.45;;;;;;;6.84;68.11;103162.66;5098223;27;96606;-36
2022/03/22 06:01:49;;;;;;;17.58;8.20;;;;;;;6.85;69.09;103169.84;5098337;27;96714;-36
2022/03/22 06:04:15;;;;;;;23.15;8.30;;;;;;;6.75;68.83;103164.53;5097001;27;99474;-36
2022/03/22 06:06:40;;;;;;;15.48;7.88;;;;;;;6.78;67.93;103169.88;5096351;27;124655;-35
2022/03/22 06:09:07;;;;;;;22.35;8.02;;;;;;;6.77;68.74;103178.00;5097956;27;96701;-36
2022/03/22 06:11:35;;;;;;;14.95;8.13;;;;;;;6.74;69.09;103167.22;5097867;27;96799;-36
2022/03/22 06:14:05;;;;;;;16.63;7.35;;;;;;;6.78;68.56;103172.56;5078929;27;100840;-36
2022/03/22 06:16:31;;;;;;;15.20;7.18;;;;;;;6.85;68.13;103186.91;5078819;27;100741;-36
2022/03/22 06:18:56;;;;;;;15.20;8.10;;;;;;;6.84;68.29;103185.13;5078772;27;96667;-36
2022/03/22 06:21:22;;;;;;;20.25;7.57;;;;;;;6.87;67.49;103184.19;5097973;27;96761;-36
2022/03/22 06:23:48;;;;;;;14.60;7.32;;;;;;;6.83;67.87;103187.81;5097178;27;99481;-36
2022/03/22 06:26:14;;;;;;;14.02;6.43;;;;;;;6.84;67.48;103182.44;5095042;27;99503;-36
2022/03/22 06:28:40;;;;;;;13.48;7.20;;;;;;;6.93;67.18;103200.28;5097558;27;96672;-36
2022/03/22 06:31:05;;;;;;;21.58;8.45;;;;;;;6.89;66.77;103196.75;5078874;27;96928;-36
2022/03/22 06:33:31;;;;;;;14.75;7.55;;;;;;;6.98;67.57;103203.84;5097493;27;97771;-36
2022/03/22 06:35:56;;;;;;;23.52;7.95;;;;;;;6.93;67.29;103178.75;5097607;27;99028;-36
2022/03/22 06:38:22;;;;;;;14.15;7.20;;;;;;;6.98;67.58;103198.44;5079164;27;96644;-36
2022/03/22 06:40:49;;;;;;;14.43;7.88;;;;;;;6.98;66.93;103191.28;5096495;27;116886;-36
2022/03/22 06:43:15;;;;;;;13.93;6.65;;;;;;;7.08;66.85;103199.25;5077883;27;100923;-36
2022/03/22 06:45:41;;;;;;;19.02;7.55;;;;;;;7.07;66.51;103189.41;5078348;27;100996;-36
2022/03/22 06:48:07;;;;;;;24.08;8.88;;;;;;;7.11;65.97;103189.34;5078738;27;96662;-36
2022/03/22 06:50:33;;;;;;;20.60;7.88;;;;;;;7.26;66.53;103203.59;5078782;27;96893;-36
2022/03/22 06:52:59;;;;;;;16.45;7.57;;;;;;;7.32;65.62;103199.03;5078304;27;101016;-36
2022/03/22 06:55:24;;;;;;;20.83;9.90;;;;;;;7.42;66.16;103194.44;5096737;27;97383;-36
2022/03/22 06:57:51;;;;;;;18.88;8.02;;;;;;;7.52;65.37;103198.81;5097412;27;96723;-36
2022/03/22 07:00:18;;;;;;;17.98;6.97;;;;;;;7.55;66.09;103185.28;5079028;27;96807;-36
2022/03/22 07:02:44;;;;;;;16.83;7.22;;;;;;;7.75;66.00;103203.09;5078300;27;100910;-36
2022/03/22 07:05:13;;;;;;;16.33;7.63;;;;;;;7.80;65.87;103185.03;5096533;27;97864;-36
2022/03/22 07:07:39;;;;;;;17.80;9.32;;;;;;;7.91;66.08;103199.25;5077040;27;96566;-36
2022/03/22 07:10:07;;;;;;;16.08;7.60;;;;;;;8.06;66.40;103203.59;5078318;27;96871;-36
2022/03/22 07:12:33;;;;;;;13.15;6.68;;;;;;;8.17;65.66;103207.03;5077941;27;102209;-36
2022/03/22 07:14:58;;;;;;;15.70;7.50;;;;;;;8.32;65.32;103205.94;5096871;27;97775;-36
2022/03/22 07:17:24;;;;;;;15.23;7.93;;;;;;;8.47;65.11;103202.16;5097169;27;96445;-36
2022/03/22 07:19:51;;;;;;;15.13;7.95;;;;;;;8.60;65.01;103206.44;5096744;27;96822;-36
2022/03/22 07:22:16;;;;;;;13.10;5.68;;;;;;;8.70;64.60;103200.00;5077626;27;100856;-36
2022/03/22 07:24:41;;;;;;;18.42;6.85;;;;;;;8.83;64.27;103200.69;5096752;27;98806;-36
2022/03/22 07:27:07;;;;;;;13.45;7.55;;;;;;;9.03;64.49;103212.97;5095777;27;116647;-36
2022/03/22 07:29:32;;;;;;;17.10;7.57;;;;;;;9.09;64.53;103199.34;5096627;27;96779;-36
2022/03/22 07:31:58;;;;;;;30.45;6.97;;;;;;;9.22;64.11;103205.41;5095569;27;108575;-36
2022/03/22 07:34:24;;;;;;;24.25;8.77;;;;;;;9.38;63.64;103203.34;5096442;27;97797;-36
2022/03/22 07:36:52;;;;;;;15.60;8.32;;;;;;;9.53;63.36;103208.44;5096479;27;96446;-36
2022/03/22 07:39:19;;;;;;;17.75;7.57;;;;;;;9.64;63.45;103214.56;5077245;27;96903;-36
2022/03/22 07:41:45;;;;;;;13.23;7.68;;;;;;;9.82;63.05;103216.00;5077436;27;100814;-36
2022/03/22 07:44:15;;;;;;;20.40;6.88;;;;;;;9.91;64.36;103215.81;5077504;27;100762;-36
2022/03/22 07:46:41;;;;;;;17.00;7.55;;;;;;;10.09;63.52;103232.59;5077781;27;96680;-36
2022/03/22 07:54:34;;;;;;;14.75;6.65;;;;;;;10.52;62.88;103218.16;5094223;27;97060;-36
2022/03/22 07:56:59;;;;;;;20.55;7.68;;;;;;;10.66;62.17;103234.97;5095614;27;96624;-36
2022/03/22 07:59:27;;;;;;;18.30;7.45;;;;;;;10.83;62.83;103232.75;5095087;27;116684;-36
2022/03/22 08:01:52;;;;;;;16.65;7.72;;;;;;;10.96;62.20;103230.59;5077136;27;100926;-36
2022/03/22 08:04:17;;;;;;;12.32;7.05;;;;;;;11.08;61.51;103212.25;5095794;27;106249;-36
2022/03/22 08:06:43;;;;;;;17.55;7.75;;;;;;;11.25;61.35;103215.44;5094656;27;116919;-36
2022/03/22 08:09:08;;;;;;;19.17;9.05;;;;;;;11.40;61.52;103216.84;5096427;27;96606;-36
2022/03/22 08:11:34;;;;;;;15.07;7.38;;;;;;;11.56;60.79;103225.44;5095533;27;98886;-36
2022/03/22 08:14:00;;;;;;;19.35;7.97;;;;;;;11.62;61.19;103219.84;5095864;27;106830;-36
2022/03/22 08:16:29;;;;;;;15.70;7.93;;;;;;;11.77;60.83;103223.97;5096242;27;96426;-36
2022/03/22 08:18:55;;;;;;;18.42;8.57;;;;;;;11.88;60.38;103235.44;5077362;27;96789;-36
2022/03/22 08:21:20;;;;;;;16.85;7.90;;;;;;;11.93;60.78;103221.75;5076643;27;100781;-36
2022/03/22 08:23:45;;;;;;;19.83;7.60;;;;;;;11.99;60.08;103216.09;5095465;27;99333;-36
2022/03/22 08:26:11;;;;;;;14.98;6.72;;;;;;;12.13;59.71;103223.84;5095423;27;111055;-36
2022/03/22 08:28:37;;;;;;;16.25;7.10;;;;;;;12.11;59.84;103219.38;5095760;27;96853;-36
2022/03/22 08:31:02;;;;;;;16.63;7.53;;;;;;;12.21;59.72;103222.69;5095310;27;99664;-37
2022/03/22 08:33:28;;;;;;;16.08;6.93;;;;;;;12.24;59.55;103232.59;5076992;27;100783;-36
2022/03/22 08:35:53;;;;;;;15.65;6.40;;;;;;;12.31;59.28;103228.75;5095827;27;96628;-36
2022/03/22 08:38:20;;;;;;;16.98;7.00;;;;;;;12.43;59.16;103246.50;5095963;27;96739;-36
2022/03/22 08:40:47;;;;;;;19.88;7.70;;;;;;;12.40;59.19;103244.78;5076866;27;100929;-36
2022/03/22 08:43:12;;;;;;;15.13;6.30;;;;;;;12.37;59.29;103236.72;5076499;27;100761;-36
2022/03/22 08:45:38;;;;;;;14.85;7.80;;;;;;;12.42;59.25;103244.69;5094861;27;96534;-36
2022/03/22 08:48:09;;;;;;;19.33;7.13;;;;;;;12.44;59.04;103245.56;5095359;27;96843;-36
2022/03/22 08:50:42;;;;;;;15.10;7.47;;;;;;;12.32;59.08;103231.44;5078408;27;101141;-36
2022/03/22 08:53:07;;;;;;;13.63;6.38;;;;;;;12.43;59.35;103244.66;5098742;27;97844;-36
2022/03/22 08:55:33;;;;;;;15.25;6.82;;;;;;;12.43;58.76;103235.63;5099300;27;96530;-36
2022/03/22 08:58:05;;;;;;;13.82;6.88;;;;;;;12.51;58.73;103247.13;5099267;27;96783;-36
2022/03/22 09:00:32;;;;;;;15.00;6.28;;;;;;;12.51;58.57;103230.81;5080144;27;100806;-36
2022/03/22 09:02:57;;;;;;;16.83;6.20;;;;;;;12.58;58.74;103226.09;5063616;27;100966;-36
2022/03/22 09:08:06;;;;;;;12.98;6.13;;;;;;;12.74;57.90;103250.03;5098852;27;96930;-36
2022/03/22 09:10:32;;;;;;;10.63;5.15;;;;;;;12.79;57.75;103249.88;5097087;27;126875;-36
2022/03/22 09:12:58;;;;;;;10.63;4.93;;;;;;;12.87;57.68;103252.34;5079799;27;100944;-36
2022/03/22 09:15:26;;;;;;;16.40;6.38;;;;;;;12.94;57.14;103246.69;5098653;27;96715;-36
2022/03/22 09:17:53;;;;;;;8.73;4.70;;;;;;;13.00;56.98;103236.53;5080316;27;97043;-36
2022/03/22 09:20:19;;;;;;;14.00;5.50;;;;;;;13.07;57.02;103243.53;5079828;27;101683;-36
2022/03/22 09:22:48;;;;;;;12.95;5.55;;;;;;;13.21;56.75;103248.53;5079867;27;100844;-36
2022/03/22 09:25:13;;;;;;;9.70;5.00;;;;;;;13.26;56.20;103246.53;5079854;27;97015;-36
2022/03/22 09:27:42;;;;;;;10.60;4.72;;;;;;;13.37;55.99;103247.06;5098834;27;96839;-36
2022/03/22 09:30:10;;;;;;;10.70;5.72;;;;;;;13.45;56.15;103244.09;5079437;27;101074;-36
2022/03/22 09:32:36;;;;;;;16.20;6.43;;;;;;;13.58;55.81;103231.81;5079600;27;100945;-36
2022/03/22 09:35:06;;;;;;;11.18;5.70;;;;;;;13.74;55.46;103234.88;5098074;27;96599;-36
2022/03/22 09:37:32;;;;;;;10.75;6.32;;;;;;;13.97;55.35;103245.81;5079827;27;96822;-36
2022/03/22 09:39:58;;;;;;;12.52;6.50;;;;;;;14.11;55.17;103238.94;5097578;27;99104;-36
2022/03/22 09:42:23;;;;;;;9.85;5.13;;;;;;;14.27;54.67;103237.41;5096877;27;126189;-36
2022/03/22 09:44:51;;;;;;;14.95;6.28;;;;;;;14.56;54.07;103244.50;5098243;27;96788;-36
2022/03/22 09:47:16;;;;;;;17.50;5.85;;;;;;;14.80;53.97;103247.16;5098100;27;96826;-36
2022/03/22 09:49:43;;;;;;;14.20;7.07;;;;;;;15.05;53.48;103233.38;5097759;27;99244;-36
2022/03/22 09:52:10;;;;;;;14.63;6.22;;;;;;;15.31;52.96;103231.41;5079475;27;100874;-36
2022/03/22 09:54:35;;;;;;;11.00;5.82;;;;;;;15.59;52.00;103226.50;5079294;27;96641;-36
2022/03/22 09:57:04;;;;;;;17.10;6.93;;;;;;;15.77;48.69;103227.53;5098029;27;96833;-36
2022/03/22 09:59:31;;;;;;;14.60;6.68;;;;;;;15.98;50.49;103238.44;5097200;27;99092;-36
2022/03/22 10:02:00;;;;;;;16.75;7.75;;;;;;;16.18;50.39;103232.91;5078754;27;100808;-36
2022/03/22 10:04:39;;;;;;;15.30;5.93;;;;;;;16.34;48.56;103219.41;5079121;27;96677;-36
2022/03/22 10:07:06;;;;;;;15.68;6.65;;;;;;;16.62;51.10;103231.78;5097491;27;96937;-36
2022/03/22 10:09:36;;;;;;;16.48;6.55;;;;;;;16.74;49.56;103222.94;5077603;27;100982;-36
2022/03/22 10:12:03;;;;;;;15.50;5.95;;;;;;;16.87;49.19;103237.81;5097727;27;97796;-36
2022/03/22 10:14:33;;;;;;;18.60;7.32;;;;;;;17.07;48.66;103219.50;5097562;27;96842;-36
2022/03/22 10:17:28;;;;;;;17.98;7.60;;;;;;;17.28;48.16;103222.97;5085282;27;96822;-36
2022/03/22 10:19:53;;;;;;;15.57;7.03;;;;;;;17.45;48.74;103225.75;5078583;27;100755;-36
2022/03/22 10:22:23;;;;;;;14.38;7.03;;;;;;;17.56;47.76;103211.44;5097450;27;102733;-36
2022/03/22 10:24:51;;;;;;;14.13;6.82;;;;;;;17.77;48.12;103226.75;5078503;27;96677;-36
2022/03/22 10:27:28;;;;;;;14.05;7.15;;;;;;;17.95;46.96;103229.50;5079158;27;96872;-36
2022/03/22 10:29:56;;;;;;;11.85;6.05;;;;;;;18.08;46.87;103224.22;5078324;27;101160;-36
2022/03/22 10:32:51;;;;;;;12.02;6.25;;;;;;;18.24;44.97;103220.53;5078675;27;100480;-36
2022/03/22 10:35:20;;;;;;;11.90;5.50;;;;;;;18.34;46.20;103226.41;5094974;27;96600;-36
2022/03/22 10:37:50;;;;;;;18.25;6.72;;;;;;;18.45;45.69;103212.06;5078843;27;96874;-36
2022/03/22 10:40:20;;;;;;;17.42;6.95;;;;;;;18.65;44.19;103222.78;5078376;27;101253;-37
2022/03/22 10:42:46;;;;;;;13.88;6.15;;;;;;;18.77;46.23;103225.81;5097121;27;99138;-36
2022/03/22 10:45:11;;;;;;;12.35;6.05;;;;;;;18.86;46.19;103217.94;5097733;27;96606;-36
2022/03/22 10:47:37;;;;;;;15.70;6.88;;;;;;;18.89;45.11;103225.09;5097856;27;96773;-36
2022/03/22 10:50:05;;;;;;;17.83;7.28;;;;;;;18.92;44.99;103219.41;5095340;27;127453;-36
2022/03/22 10:52:31;;;;;;;14.15;6.60;;;;;;;19.07;44.92;103210.28;5077543;27;98983;-37
2022/03/22 10:54:57;;;;;;;14.48;6.38;;;;;;;19.29;44.75;103217.22;5078434;27;96696;-36
2022/03/22 10:57:32;;;;;;;18.10;6.05;;;;;;;19.26;42.26;103218.31;5097535;27;96825;-36
2022/03/22 11:00:05;;;;;;;14.95;7.15;;;;;;;19.33;43.83;103216.06;5079335;27;99253;-37
2022/03/22 11:02:37;;;;;;;14.80;6.22;;;;;;;19.44;43.65;103216.28;5078194;27;102228;-37
2022/03/22 11:05:04;;;;;;;13.95;6.03;;;;;;;19.33;43.50;103207.81;5078397;27;96806;-36
2022/03/22 11:07:34;;;;;;;18.20;6.60;;;;;;;19.45;44.08;103215.31;5060894;27;96944;-36
2022/03/22 11:10:00;;;;;;;14.18;5.82;;;;;;;19.65;44.00;103215.94;5096590;27;97490;-36
2022/03/22 11:12:27;;;;;;;14.75;6.72;;;;;;;19.77;43.27;103217.97;5077391;27;100530;-36
2022/03/22 11:14:57;;;;;;;13.63;5.72;;;;;;;19.82;41.49;103214.91;5077911;27;96537;-37
2022/03/22 11:17:25;;;;;;;14.82;6.38;;;;;;;19.81;40.78;103208.53;5078405;27;96877;-37
2022/03/22 11:19:51;;;;;;;9.40;5.47;;;;;;;20.02;42.76;103205.38;5077732;27;100901;-36
2022/03/22 11:22:18;;;;;;;14.55;5.68;;;;;;;20.15;42.73;103206.38;5077738;27;101132;-36
2022/03/22 11:24:44;;;;;;;15.43;6.35;;;;;;;20.31;42.23;103195.25;5078093;27;96552;-36
2022/03/22 11:27:10;;;;;;;16.25;6.55;;;;;;;20.56;42.76;103208.31;5078162;27;96861;-37
2022/03/22 11:29:40;;;;;;;15.18;6.45;;;;;;;20.62;40.25;103194.16;5077894;27;100781;-36
2022/03/22 11:34:58;;;;;;;10.77;5.15;;;;;;;20.88;39.87;103203.41;5097266;27;96682;-37
2022/03/22 11:37:34;;;;;;;13.07;5.15;;;;;;;21.01;39.80;103203.44;5096632;27;96772;-37
2022/03/22 11:42:56;;;;;;;12.63;4.97;;;;;;;21.09;39.26;103195.50;5095787;27;97159;-37
2022/03/22 11:45:22;;;;;;;17.17;4.63;;;;;;;21.07;38.35;103192.00;5096470;27;96642;-36
2022/03/22 11:47:49;;;;;;;7.38;3.55;;;;;;;21.19;39.93;103198.56;5096610;27;96765;-36
2022/03/22 11:50:18;;;;;;;7.05;3.58;;;;;;;21.20;36.97;103198.44;5096045;27;98078;-37
2022/03/22 11:52:44;;;;;;;11.45;4.32;;;;;;;21.22;39.54;103181.78;5096134;27;97815;-36
2022/03/22 11:55:17;;;;;;;7.88;4.25;;;;;;;21.26;36.50;103197.13;5096307;27;96514;-36
2022/03/22 11:57:55;;;;;;;7.78;3.97;;;;;;;21.10;37.78;103179.88;5077982;27;96859;-36
2022/03/22 12:00:46;;;;;;;9.18;3.97;;;;;;;21.27;36.83;103187.88;5077521;27;101356;-36